Time;durP1;ratioP1;P1;durP2;ratioP2;P2;SDS_P1;SDS_P2;PMS_P1;PMS_P2;Temp;Humidity;BMP_temperature;BMP_pressure;BME280_temperature;BME280_humidity;BME280_pressure;Samples;Min_cycle;Max_cycle;Signal;HPM_P1;HPM_P2
2023/02/08 00:00:00;;;;;;;4.27;4.00;;;;;;;;;;5043133;28;20295;-62
2023/02/08 00:02:27;;;;;;;10.00;4.30;;;;;;;;;;5048518;28;20609;-62
2023/02/08 00:04:53;;;;;;;0.40;0.40;;;;;;;;;;5043434;28;20278;-62
2023/02/08 00:07:19;;;;;;;2.40;2.33;;;;;;;;;;5048382;28;20262;-61
2023/02/08 00:09:46;;;;;;;0.50;0.50;;;;;;;;;;5043091;28;20204;-61
2023/02/08 00:12:12;;;;;;;1.03;1.03;;;;;;;;;;5048428;28;20243;-61
2023/02/08 00:14:39;;;;;;;1.90;1.90;;;;;;;;;;5042966;28;20310;-61
2023/02/08 00:17:06;;;;;;;2.53;2.33;;;;;;;;;;5047852;28;20262;-63
2023/02/08 00:19:33;;;;;;;0.40;0.40;;;;;;;;;;5043054;28;20238;-62
2023/02/08 00:21:59;;;;;;;0.70;0.70;;;;;;;;;;5047070;28;20269;-60
2023/02/08 00:24:25;;;;;;;3.03;2.93;;;;;;;;;;5043840;28;20280;-62
2023/02/08 00:26:52;;;;;;;2.03;1.93;;;;;;;;;;5046025;28;20259;-64
2023/02/08 00:29:19;;;;;;;0.40;0.40;;;;;;;;;;5044385;28;20220;-64
2023/02/08 00:31:45;;;;;;;6.33;5.93;;;;;;;;;;5046425;28;20308;-64
2023/02/08 00:34:13;;;;;;;3.30;2.20;;;;;;;;;;5049225;28;20243;-64
2023/02/08 00:36:39;;;;;;;2.70;2.60;;;;;;;;;;5048046;28;20255;-65
2023/02/08 00:39:06;;;;;;;0.40;0.40;;;;;;;;;;5049709;28;20294;-64
2023/02/08 00:41:32;;;;;;;2.93;2.83;;;;;;;;;;5047032;28;20512;-64
2023/02/08 00:43:58;;;;;;;0.40;0.40;;;;;;;;;;5050778;28;20272;-64
2023/02/08 00:46:25;;;;;;;0.70;0.70;;;;;;;;;;5045970;28;20242;-64
2023/02/08 00:48:51;;;;;;;0.40;0.40;;;;;;;;;;5051576;28;20275;-64
2023/02/08 00:51:19;;;;;;;0.40;0.40;;;;;;;;;;5044975;28;20258;-64
2023/02/08 00:53:45;;;;;;;0.50;0.50;;;;;;;;;;5052331;28;20209;-65
2023/02/08 00:56:12;;;;;;;1.10;1.10;;;;;;;;;;5044133;28;20247;-64
2023/02/08 00:58:39;;;;;;;0.60;0.60;;;;;;;;;;5052839;28;20232;-63
2023/02/08 01:01:06;;;;;;;0.93;0.93;;;;;;;;;;5043094;28;20252;-65
2023/02/08 01:03:33;;;;;;;1.17;1.17;;;;;;;;;;5053652;28;20450;-63
2023/02/08 01:06:00;;;;;;;0.40;0.40;;;;;;;;;;5042546;28;20573;-64
2023/02/08 01:08:28;;;;;;;0.50;0.50;;;;;;;;;;5054438;28;20530;-64
2023/02/08 01:11:01;;;;;;;0.57;0.57;;;;;;;;;;5041560;28;20354;-64
2023/02/08 01:13:28;;;;;;;0.50;0.50;;;;;;;;;;5054128;28;20246;-64
2023/02/08 01:15:54;;;;;;;0.40;0.40;;;;;;;;;;5041770;28;20249;-64
2023/02/08 01:18:21;;;;;;;0.40;0.40;;;;;;;;;;5054722;28;20234;-64
2023/02/08 01:20:47;;;;;;;2.00;1.90;;;;;;;;;;5040627;28;20247;-63
2023/02/08 01:23:13;;;;;;;2.40;2.37;;;;;;;;;;5055901;28;20278;-63
2023/02/08 01:25:41;;;;;;;3.07;2.87;;;;;;;;;;5039448;28;20243;-65
2023/02/08 01:28:08;;;;;;;0.83;0.83;;;;;;;;;;5056475;28;20227;-63
2023/02/08 01:30:34;;;;;;;0.43;0.43;;;;;;;;;;5038478;28;20315;-63
2023/02/08 01:33:14;;;;;;;1.37;1.37;;;;;;;;;;5057159;28;20282;-65
2023/02/08 01:35:40;;;;;;;0.50;0.50;;;;;;;;;;5039146;28;20246;-64
2023/02/08 01:38:06;;;;;;;0.40;0.40;;;;;;;;;;5056525;28;20278;-65
2023/02/08 01:40:33;;;;;;;0.77;0.77;;;;;;;;;;5038278;28;20309;-63
2023/02/08 01:43:00;;;;;;;20.60;4.93;;;;;;;;;;5056112;28;20276;-64
2023/02/08 01:45:28;;;;;;;0.77;0.73;;;;;;;;;;5037568;28;20292;-64
2023/02/08 01:47:58;;;;;;;0.40;0.40;;;;;;;;;;5057861;28;20537;-64
2023/02/08 01:50:26;;;;;;;0.50;0.50;;;;;;;;;;5037239;28;20455;-63
2023/02/08 01:52:53;;;;;;;3.57;3.47;;;;;;;;;;5057855;28;20283;-63
2023/02/08 01:55:20;;;;;;;0.50;0.50;;;;;;;;;;5036505;28;20384;-63
2023/02/08 01:57:51;;;;;;;0.50;0.50;;;;;;;;;;5058608;28;20207;-63
2023/02/08 02:00:21;;;;;;;0.53;0.53;;;;;;;;;;5035739;28;20226;-63
2023/02/08 02:02:48;;;;;;;0.60;0.60;;;;;;;;;;5058530;28;20226;-62
2023/02/08 02:05:14;;;;;;;1.00;1.00;;;;;;;;;;5035248;28;20275;-63
2023/02/08 02:07:41;;;;;;;1.23;1.23;;;;;;;;;;5059253;28;20207;-63
2023/02/08 02:10:08;;;;;;;1.17;1.17;;;;;;;;;;5040996;28;20235;-62
2023/02/08 02:12:36;;;;;;;0.43;0.43;;;;;;;;;;5059904;28;20241;-62
2023/02/08 02:15:03;;;;;;;0.60;0.60;;;;;;;;;;5044513;28;20233;-64
2023/02/08 02:17:31;;;;;;;1.10;1.10;;;;;;;;;;5050006;28;20262;-63
2023/02/08 02:20:03;;;;;;;0.50;0.50;;;;;;;;;;5044304;28;20259;-63
2023/02/08 02:22:40;;;;;;;0.50;0.50;;;;;;;;;;5049734;28;20415;-63
2023/02/08 02:25:20;;;;;;;0.60;0.60;;;;;;;;;;5044651;28;20265;-62
2023/02/08 02:28:02;;;;;;;0.83;0.83;;;;;;;;;;5044209;28;20210;-63
2023/02/08 02:30:47;;;;;;;0.50;0.50;;;;;;;;;;5036673;28;20248;-63
2023/02/08 02:33:27;;;;;;;0.50;0.50;;;;;;;;;;5054503;28;20235;-64
2023/02/08 02:35:56;;;;;;;0.60;0.60;;;;;;;;;;5040106;28;20291;-63
2023/02/08 02:38:29;;;;;;;0.50;0.50;;;;;;;;;;5053228;28;20456;-62
2023/02/08 02:41:01;;;;;;;13.90;6.70;;;;;;;;;;5040303;28;20543;-63
2023/02/08 02:43:41;;;;;;;0.50;0.50;;;;;;;;;;5052425;28;20207;-63
2023/02/08 02:46:13;;;;;;;1.13;1.13;;;;;;;;;;5041539;28;20246;-63
2023/02/08 02:48:44;;;;;;;2.63;2.53;;;;;;;;;;5050850;28;20206;-63
2023/02/08 02:51:14;;;;;;;1.13;1.13;;;;;;;;;;5042028;28;20249;-63
2023/02/08 02:53:44;;;;;;;0.57;0.57;;;;;;;;;;5050592;28;20207;-63
2023/02/08 02:56:14;;;;;;;5.80;5.50;;;;;;;;;;5041685;28;20257;-63
2023/02/08 02:58:41;;;;;;;0.50;0.50;;;;;;;;;;5050721;28;20274;-63
2023/02/08 03:01:08;;;;;;;0.50;0.50;;;;;;;;;;5041262;28;20312;-63
2023/02/08 03:03:34;;;;;;;1.03;1.03;;;;;;;;;;5051391;28;20279;-63
2023/02/08 03:06:03;;;;;;;3.97;3.87;;;;;;;;;;5040406;28;20254;-63
2023/02/08 03:08:41;;;;;;;0.77;0.77;;;;;;;;;;5051998;28;20277;-62
2023/02/08 03:11:14;;;;;;;0.50;0.50;;;;;;;;;;5041241;28;20264;-63
2023/02/08 03:13:51;;;;;;;0.87;0.87;;;;;;;;;;5050391;28;20239;-63
2023/02/08 03:16:19;;;;;;;0.60;0.60;;;;;;;;;;5042482;28;20239;-63
2023/02/08 03:18:52;;;;;;;1.60;1.60;;;;;;;;;;5049806;28;20249;-63
2023/02/08 03:21:22;;;;;;;8.70;7.83;;;;;;;;;;5042372;28;20592;-63
2023/02/08 03:23:55;;;;;;;1.53;1.53;;;;;;;;;;5049086;28;20280;-63
2023/02/08 03:26:23;;;;;;;0.60;0.60;;;;;;;;;;5043047;28;20434;-64
2023/02/08 03:28:55;;;;;;;0.50;0.50;;;;;;;;;;5048879;28;20254;-63
2023/02/08 03:31:26;;;;;;;0.50;0.50;;;;;;;;;;5042896;28;20487;-63
2023/02/08 03:33:53;;;;;;;0.50;0.50;;;;;;;;;;5048588;28;20241;-63
2023/02/08 03:36:25;;;;;;;1.70;1.67;;;;;;;;;;5042708;28;20253;-63
2023/02/08 03:38:53;;;;;;;0.50;0.50;;;;;;;;;;5048555;28;20241;-63
2023/02/08 03:41:22;;;;;;;1.57;1.53;;;;;;;;;;5042525;28;20281;-63
2023/02/08 03:43:50;;;;;;;1.10;1.10;;;;;;;;;;5049022;28;20249;-63
2023/02/08 03:46:20;;;;;;;0.57;0.57;;;;;;;;;;5042271;28;20593;-63
2023/02/08 03:48:49;;;;;;;3.43;3.13;;;;;;;;;;5049103;28;20470;-64
2023/02/08 03:51:16;;;;;;;0.50;0.50;;;;;;;;;;5041840;28;20253;-63
2023/02/08 03:53:45;;;;;;;1.00;1.00;;;;;;;;;;5049729;28;20255;-63
2023/02/08 03:56:14;;;;;;;0.50;0.50;;;;;;;;;;5041481;28;20242;-63
2023/02/08 03:58:41;;;;;;;0.50;0.50;;;;;;;;;;5050011;28;20207;-64
2023/02/08 04:01:12;;;;;;;1.13;1.13;;;;;;;;;;5040772;28;20242;-63
2023/02/08 04:03:39;;;;;;;0.40;0.40;;;;;;;;;;5050211;28;20237;-63
2023/02/08 04:06:06;;;;;;;0.60;0.60;;;;;;;;;;5040557;28;20248;-63
2023/02/08 04:08:32;;;;;;;7.60;5.20;;;;;;;;;;5054775;28;20207;-62
2023/02/08 04:11:00;;;;;;;2.60;2.50;;;;;;;;;;5043399;28;20311;-63
2023/02/08 04:13:26;;;;;;;0.70;0.70;;;;;;;;;;5055455;28;20218;-63
2023/02/08 04:15:53;;;;;;;0.50;0.50;;;;;;;;;;5042518;28;20256;-63
2023/02/08 04:18:19;;;;;;;10.60;9.67;;;;;;;;;;5056247;28;20238;-63
2023/02/08 04:20:45;;;;;;;2.40;2.20;;;;;;;;;;5041361;28;20248;-63
2023/02/08 04:23:12;;;;;;;0.70;0.70;;;;;;;;;;5057103;28;20242;-63
2023/02/08 04:25:38;;;;;;;1.27;1.27;;;;;;;;;;5040706;28;20249;-63
2023/02/08 04:28:06;;;;;;;3.53;3.33;;;;;;;;;;5058041;28;20258;-63
2023/02/08 04:30:32;;;;;;;2.13;2.10;;;;;;;;;;5039353;28;20268;-63
2023/02/08 04:32:59;;;;;;;0.50;0.50;;;;;;;;;;5058754;28;20248;-63
2023/02/08 04:35:25;;;;;;;0.50;0.50;;;;;;;;;;5038771;28;20521;-63
2023/02/08 04:37:51;;;;;;;0.60;0.60;;;;;;;;;;5059466;28;20471;-63
2023/02/08 04:40:18;;;;;;;0.73;0.73;;;;;;;;;;5037417;28;20254;-63
2023/02/08 04:42:44;;;;;;;1.63;1.53;;;;;;;;;;5060179;28;20279;-64
2023/02/08 04:45:12;;;;;;;1.13;1.13;;;;;;;;;;5036708;28;20274;-63
2023/02/08 04:47:38;;;;;;;0.43;0.43;;;;;;;;;;5061224;28;20210;-63
2023/02/08 04:50:05;;;;;;;0.50;0.50;;;;;;;;;;5046096;28;20209;-64
2023/02/08 04:52:31;;;;;;;4.30;4.10;;;;;;;;;;5051465;28;20245;-63
2023/02/08 04:54:57;;;;;;;0.40;0.40;;;;;;;;;;5045978;28;20234;-63
2023/02/08 04:57:24;;;;;;;3.90;3.80;;;;;;;;;;5051106;28;20265;-63
2023/02/08 04:59:50;;;;;;;0.50;0.50;;;;;;;;;;5045956;28;20273;-63
2023/02/08 05:02:18;;;;;;;2.17;2.10;;;;;;;;;;5050921;28;20248;-63
2023/02/08 05:04:44;;;;;;;1.03;1.03;;;;;;;;;;5045990;28;20211;-63
2023/02/08 05:07:11;;;;;;;0.70;0.70;;;;;;;;;;5051189;28;20300;-63
2023/02/08 05:09:37;;;;;;;3.33;3.13;;;;;;;;;;5045598;28;20209;-64
2023/02/08 05:12:04;;;;;;;0.63;0.63;;;;;;;;;;5050422;28;20324;-63
2023/02/08 05:14:30;;;;;;;0.67;0.67;;;;;;;;;;5046334;28;20456;-63
2023/02/08 05:16:56;;;;;;;4.27;4.07;;;;;;;;;;5049488;28;20512;-64
2023/02/08 05:19:24;;;;;;;4.87;4.57;;;;;;;;;;5046987;28;20238;-63
2023/02/08 05:21:50;;;;;;;0.50;0.50;;;;;;;;;;5048725;28;20314;-64
2023/02/08 05:24:17;;;;;;;1.07;1.07;;;;;;;;;;5047705;28;20239;-64
2023/02/08 05:26:43;;;;;;;11.00;4.93;;;;;;;;;;5047621;28;20264;-64
2023/02/08 05:29:10;;;;;;;0.60;0.60;;;;;;;;;;5048346;28;20466;-63
2023/02/08 05:31:36;;;;;;;1.13;1.13;;;;;;;;;;5046636;28;20308;-64
2023/02/08 05:34:02;;;;;;;0.70;0.70;;;;;;;;;;5049274;28;20237;-64
2023/02/08 05:36:30;;;;;;;1.53;1.47;;;;;;;;;;5045568;28;20242;-64
2023/02/08 05:38:56;;;;;;;4.93;4.73;;;;;;;;;;5050009;28;20222;-64
2023/02/08 05:41:23;;;;;;;0.50;0.50;;;;;;;;;;5044847;28;20322;-64
2023/02/08 05:43:49;;;;;;;0.50;0.50;;;;;;;;;;5050855;28;20205;-64
2023/02/08 05:46:16;;;;;;;0.57;0.57;;;;;;;;;;5043593;28;20247;-64
2023/02/08 05:48:42;;;;;;;0.50;0.50;;;;;;;;;;5051667;28;20400;-64
2023/02/08 05:51:08;;;;;;;0.50;0.50;;;;;;;;;;5042530;28;20310;-64
2023/02/08 05:53:36;;;;;;;12.73;5.40;;;;;;;;;;5052502;28;20274;-63
2023/02/08 05:56:03;;;;;;;0.40;0.40;;;;;;;;;;5041732;28;20289;-63
2023/02/08 05:58:29;;;;;;;1.37;1.37;;;;;;;;;;5053131;28;20206;-64
2023/02/08 06:00:56;;;;;;;0.50;0.50;;;;;;;;;;5040504;28;20313;-63
2023/02/08 06:03:23;;;;;;;0.60;0.60;;;;;;;;;;5054481;28;20207;-64
2023/02/08 06:05:49;;;;;;;0.60;0.60;;;;;;;;;;5040189;28;20299;-64
2023/02/08 06:08:15;;;;;;;2.10;2.00;;;;;;;;;;5054709;28;20241;-63
2023/02/08 06:10:44;;;;;;;1.23;1.23;;;;;;;;;;5038757;28;20270;-63
2023/02/08 06:13:11;;;;;;;0.50;0.50;;;;;;;;;;5055119;28;20284;-64
2023/02/08 06:15:37;;;;;;;0.50;0.50;;;;;;;;;;5038268;28;20301;-64
2023/02/08 06:18:04;;;;;;;0.50;0.50;;;;;;;;;;5056002;28;20203;-64
2023/02/08 06:20:30;;;;;;;0.63;0.63;;;;;;;;;;5037406;28;20433;-64
2023/02/08 06:22:56;;;;;;;1.67;1.63;;;;;;;;;;5057102;28;20234;-63
2023/02/08 06:25:23;;;;;;;0.50;0.50;;;;;;;;;;5036388;28;20278;-63
2023/02/08 06:27:50;;;;;;;0.50;0.50;;;;;;;;;;5057681;28;20274;-64
2023/02/08 06:30:17;;;;;;;0.43;0.43;;;;;;;;;;5034722;28;20241;-64
2023/02/08 06:32:43;;;;;;;0.73;0.73;;;;;;;;;;5058394;28;20568;-63
2023/02/08 06:35:10;;;;;;;5.87;5.50;;;;;;;;;;5034554;28;20206;-63
2023/02/08 06:37:36;;;;;;;3.43;3.20;;;;;;;;;;5059337;28;20200;-64
2023/02/08 06:40:03;;;;;;;0.57;0.57;;;;;;;;;;5043952;28;20239;-64
2023/02/08 06:42:29;;;;;;;0.50;0.50;;;;;;;;;;5049405;28;20249;-63
2023/02/08 06:44:57;;;;;;;0.50;0.50;;;;;;;;;;5043932;28;20249;-63
2023/02/08 06:47:24;;;;;;;0.70;0.70;;;;;;;;;;5049291;28;20317;-63
2023/02/08 06:49:50;;;;;;;0.50;0.50;;;;;;;;;;5043935;28;20253;-64
2023/02/08 06:52:17;;;;;;;0.50;0.50;;;;;;;;;;5049192;28;20242;-64
2023/02/08 06:54:43;;;;;;;0.57;0.57;;;;;;;;;;5043780;28;20273;-64
2023/02/08 06:57:11;;;;;;;0.63;0.63;;;;;;;;;;5049142;28;20276;-62
2023/02/08 06:59:38;;;;;;;0.50;0.50;;;;;;;;;;5043992;28;20213;-63
2023/02/08 07:02:05;;;;;;;0.50;0.50;;;;;;;;;;5048443;28;20573;-64
2023/02/08 07:04:32;;;;;;;4.93;4.67;;;;;;;;;;5044100;28;20239;-63
2023/02/08 07:06:58;;;;;;;1.03;1.03;;;;;;;;;;5047764;28;20304;-64
2023/02/08 07:09:24;;;;;;;0.60;0.60;;;;;;;;;;5044960;28;20273;-64
2023/02/08 07:11:51;;;;;;;3.40;2.50;;;;;;;;;;5046597;28;20657;-65
2023/02/08 07:14:17;;;;;;;3.53;3.23;;;;;;;;;;5045499;28;20398;-64
2023/02/08 07:16:44;;;;;;;0.80;0.80;;;;;;;;;;5045712;28;20587;-64
2023/02/08 07:19:11;;;;;;;2.30;2.10;;;;;;;;;;5046579;28;20414;-64
2023/02/08 07:21:38;;;;;;;0.60;0.60;;;;;;;;;;5044663;28;20249;-64
2023/02/08 07:24:04;;;;;;;0.67;0.67;;;;;;;;;;5047215;28;20246;-63
2023/02/08 07:26:31;;;;;;;2.10;2.10;;;;;;;;;;5043912;28;20256;-60
2023/02/08 07:28:58;;;;;;;0.50;0.50;;;;;;;;;;5048221;28;20222;-63
2023/02/08 07:31:26;;;;;;;0.50;0.50;;;;;;;;;;5043116;28;20260;-62
2023/02/08 07:33:53;;;;;;;3.23;2.17;;;;;;;;;;5048695;28;20232;-62
2023/02/08 07:36:20;;;;;;;1.67;1.67;;;;;;;;;;5042590;28;20246;-60
2023/02/08 07:38:47;;;;;;;0.50;0.50;;;;;;;;;;5049764;28;20249;-63
2023/02/08 07:41:14;;;;;;;1.20;1.10;;;;;;;;;;5042354;28;20234;-63
2023/02/08 07:43:41;;;;;;;0.50;0.50;;;;;;;;;;5054235;28;20218;-62
2023/02/08 07:46:08;;;;;;;0.53;0.53;;;;;;;;;;5045071;28;20299;-61
2023/02/08 07:48:35;;;;;;;0.97;0.97;;;;;;;;;;5055161;28;20401;-62
2023/02/08 07:51:01;;;;;;;0.73;0.73;;;;;;;;;;5044173;28;20239;-62
2023/02/08 07:53:29;;;;;;;0.50;0.50;;;;;;;;;;5055902;28;20298;-61
2023/02/08 07:55:55;;;;;;;0.77;0.77;;;;;;;;;;5043283;28;20242;-62
2023/02/08 07:58:22;;;;;;;0.80;0.80;;;;;;;;;;5056499;28;20279;-63
2023/02/08 08:00:49;;;;;;;5.03;4.63;;;;;;;;;;5042072;28;20301;-62
2023/02/08 08:03:15;;;;;;;1.27;1.27;;;;;;;;;;5057213;28;20239;-61
2023/02/08 08:05:41;;;;;;;0.60;0.60;;;;;;;;;;5041462;28;20305;-64
2023/02/08 08:08:08;;;;;;;0.60;0.60;;;;;;;;;;5057928;28;20242;-66
2023/02/08 08:10:36;;;;;;;1.33;1.33;;;;;;;;;;5040320;28;20258;-63
2023/02/08 08:13:03;;;;;;;4.73;2.83;;;;;;;;;;5058776;28;20269;-63
2023/02/08 08:15:29;;;;;;;2.47;2.40;;;;;;;;;;5039790;28;20281;-65
2023/02/08 08:17:56;;;;;;;0.60;0.60;;;;;;;;;;5059429;28;20278;-65
2023/02/08 08:20:23;;;;;;;0.40;0.40;;;;;;;;;;5038660;28;20470;-64
2023/02/08 08:22:49;;;;;;;0.50;0.50;;;;;;;;;;5060370;28;20239;-63
2023/02/08 08:25:16;;;;;;;0.40;0.40;;;;;;;;;;5037608;28;20314;-63
2023/02/08 08:27:44;;;;;;;0.50;0.50;;;;;;;;;;5060956;28;20273;-64
2023/02/08 08:30:12;;;;;;;0.93;0.93;;;;;;;;;;5036858;28;20470;-64
2023/02/08 08:32:38;;;;;;;0.50;0.50;;;;;;;;;;5061282;28;20266;-63
2023/02/08 08:35:05;;;;;;;2.20;2.00;;;;;;;;;;5046660;28;20448;-63
2023/02/08 08:37:32;;;;;;;1.50;1.50;;;;;;;;;;5035023;28;20203;-66
2023/02/08 08:39:58;;;;;;;0.70;0.70;;;;;;;;;;5046574;28;20508;-65
2023/02/08 08:42:25;;;;;;;0.40;0.40;;;;;;;;;;5051455;28;20254;-65
2023/02/08 08:44:53;;;;;;;0.40;0.40;;;;;;;;;;5046080;28;20212;-65
2023/02/08 08:47:19;;;;;;;1.10;1.03;;;;;;;;;;5051450;28;20262;-64
2023/02/08 08:49:46;;;;;;;2.63;2.43;;;;;;;;;;5046353;28;20272;-64
2023/02/08 08:52:13;;;;;;;0.40;0.40;;;;;;;;;;5051005;28;20606;-63
2023/02/08 08:54:39;;;;;;;3.33;3.13;;;;;;;;;;5045952;28;20274;-64
2023/02/08 08:57:05;;;;;;;1.23;1.23;;;;;;;;;;5051009;28;20327;-64
2023/02/08 08:59:32;;;;;;;0.40;0.40;;;;;;;;;;5048754;28;20242;-67
2023/02/08 09:02:00;;;;;;;0.50;0.50;;;;;;;;;;5050155;28;20478;-49
2023/02/08 09:04:26;;;;;;;0.93;0.93;;;;;;;;;;5046772;28;20276;-46
2023/02/08 09:06:54;;;;;;;3.70;2.10;;;;;;;;;;5049142;28;20241;-46
2023/02/08 09:09:21;;;;;;;0.40;0.40;;;;;;;;;;5047567;28;20218;-48
2023/02/08 09:11:47;;;;;;;0.93;0.93;;;;;;;;;;5048410;28;20244;-47
2023/02/08 09:14:14;;;;;;;0.70;0.70;;;;;;;;;;5048291;28;20251;-47
2023/02/08 09:16:41;;;;;;;0.40;0.40;;;;;;;;;;5047627;28;20315;-46
2023/02/08 09:19:10;;;;;;;0.97;0.80;;;;;;;;;;5049061;28;20206;-48
2023/02/08 09:21:36;;;;;;;1.60;1.50;;;;;;;;;;5047355;28;20326;-46
2023/02/08 09:24:03;;;;;;;5.50;5.20;;;;;;;;;;5049196;28;20205;-46
2023/02/08 09:26:30;;;;;;;1.33;1.23;;;;;;;;;;5046202;28;20283;-61
2023/02/08 09:28:56;;;;;;;0.67;0.67;;;;;;;;;;5050144;28;20248;-64
2023/02/08 09:31:24;;;;;;;4.00;3.80;;;;;;;;;;5045723;28;20320;-64
2023/02/08 09:33:51;;;;;;;0.60;0.60;;;;;;;;;;5051145;28;20260;-64
2023/02/08 09:36:19;;;;;;;0.40;0.40;;;;;;;;;;5044537;28;20325;-64
2023/02/08 09:38:45;;;;;;;0.30;0.30;;;;;;;;;;5051621;28;20443;-62
2023/02/08 09:41:21;;;;;;;0.30;0.30;;;;;;;;;;5043660;28;20402;-60
2023/02/08 09:43:52;;;;;;;0.30;0.30;;;;;;;;;;5051123;28;20244;-60
2023/02/08 09:46:20;;;;;;;1.13;1.13;;;;;;;;;;5044275;28;20318;-61
2023/02/08 09:48:47;;;;;;;0.37;0.37;;;;;;;;;;5051273;28;20277;-60
2023/02/08 09:51:20;;;;;;;0.50;0.50;;;;;;;;;;5043442;28;20238;-55
2023/02/08 09:53:50;;;;;;;6.80;4.03;;;;;;;;;;5051131;28;20209;-64
2023/02/08 09:56:19;;;;;;;0.30;0.30;;;;;;;;;;5043732;28;20314;-64
2023/02/08 09:58:48;;;;;;;4.07;3.87;;;;;;;;;;5051146;28;20238;-65
2023/02/08 10:01:17;;;;;;;0.30;0.30;;;;;;;;;;5043403;28;20242;-65
2023/02/08 10:03:44;;;;;;;1.30;1.30;;;;;;;;;;5050647;28;20507;-64
2023/02/08 10:06:11;;;;;;;0.30;0.30;;;;;;;;;;5042614;28;20253;-62
2023/02/08 10:08:38;;;;;;;0.53;0.53;;;;;;;;;;5051969;28;20207;-64
2023/02/08 10:11:10;;;;;;;5.57;5.10;;;;;;;;;;5042154;28;20243;-64
2023/02/08 10:13:44;;;;;;;3.07;2.97;;;;;;;;;;5052066;28;20354;-65
2023/02/08 10:16:16;;;;;;;0.30;0.30;;;;;;;;;;5042700;28;20259;-64
2023/02/08 10:18:46;;;;;;;1.20;1.13;;;;;;;;;;5051307;28;20279;-65
2023/02/08 10:21:24;;;;;;;0.20;0.20;;;;;;;;;;5042676;28;20259;-63
2023/02/08 10:24:07;;;;;;;0.10;0.10;;;;;;;;;;5050148;28;20567;-61
2023/02/08 10:26:37;;;;;;;0.20;0.20;;;;;;;;;;5045571;28;20297;-61
2023/02/08 10:29:10;;;;;;;0.10;0.10;;;;;;;;;;5048248;28;20465;-62
2023/02/08 10:31:45;;;;;;;0.10;0.10;;;;;;;;;;5045540;28;20257;-63
2023/02/08 10:34:19;;;;;;;0.50;0.50;;;;;;;;;;5047173;28;20276;-63
2023/02/08 10:36:45;;;;;;;0.20;0.20;;;;;;;;;;5046700;28;20260;-63
2023/02/08 10:39:15;;;;;;;0.10;0.10;;;;;;;;;;5046927;28;20249;-63
2023/02/08 10:41:43;;;;;;;0.10;0.10;;;;;;;;;;5046125;28;20262;-63
2023/02/08 10:44:16;;;;;;;0.10;0.10;;;;;;;;;;5047410;28;20243;-63
2023/02/08 10:46:45;;;;;;;0.10;0.10;;;;;;;;;;5046449;28;20289;-63
2023/02/08 10:49:15;;;;;;;0.10;0.10;;;;;;;;;;5046956;28;20244;-63
2023/02/08 10:51:41;;;;;;;0.05;0.05;;;;;;;;;;5046366;28;20240;-62
2023/02/08 10:54:10;;;;;;;0.10;0.10;;;;;;;;;;5047220;28;20279;-62
2023/02/08 10:56:48;;;;;;;0.10;0.10;;;;;;;;;;5045243;28;20258;-63
2023/02/08 10:59:19;;;;;;;0.05;0.05;;;;;;;;;;5046543;28;20460;-62
2023/02/08 11:01:46;;;;;;;0.10;0.10;;;;;;;;;;5046418;28;20245;-62
2023/02/08 11:04:13;;;;;;;0.10;0.10;;;;;;;;;;5046280;28;20204;-62
2023/02/08 11:06:40;;;;;;;0.35;0.35;;;;;;;;;;5045750;28;20434;-63
2023/02/08 11:09:07;;;;;;;0.08;0.08;;;;;;;;;;5047284;28;20208;-63
2023/02/08 11:11:34;;;;;;;5.00;2.47;;;;;;;;;;5044701;28;20251;-63
2023/02/08 11:14:07;;;;;;;9.68;5.72;;;;;;;;;;5048032;28;20204;-63
2023/02/08 11:16:34;;;;;;;0.10;0.10;;;;;;;;;;5044707;28;20486;-62
2023/02/08 11:19:04;;;;;;;0.00;0.00;;;;;;;;;;5047780;28;20306;-62
2023/02/08 11:21:33;;;;;;;0.10;0.10;;;;;;;;;;5044054;28;20243;-61
2023/02/08 11:24:01;;;;;;;0.10;0.10;;;;;;;;;;5048011;28;20207;-61
2023/02/08 11:26:32;;;;;;;0.20;0.20;;;;;;;;;;5043910;28;20315;-61
2023/02/08 11:29:00;;;;;;;0.10;0.10;;;;;;;;;;5047870;28;20253;-61
2023/02/08 11:31:28;;;;;;;0.20;0.20;;;;;;;;;;5043572;28;20291;-62
2023/02/08 11:33:59;;;;;;;0.20;0.20;;;;;;;;;;5048708;28;20529;-61
2023/02/08 11:36:25;;;;;;;0.57;0.57;;;;;;;;;;5043416;28;20441;-61
2023/02/08 11:38:52;;;;;;;0.10;0.10;;;;;;;;;;5048786;28;20248;-61
2023/02/08 11:41:19;;;;;;;0.08;0.08;;;;;;;;;;5042560;28;20240;-62
2023/02/08 11:43:52;;;;;;;0.10;0.10;;;;;;;;;;5049227;28;20229;-62
2023/02/08 11:46:22;;;;;;;0.10;0.10;;;;;;;;;;5042620;28;20266;-61
2023/02/08 11:48:51;;;;;;;1.20;1.20;;;;;;;;;;5049003;28;20262;-62
2023/02/08 11:51:25;;;;;;;0.10;0.10;;;;;;;;;;5042353;28;20259;-61
2023/02/08 11:53:51;;;;;;;0.10;0.10;;;;;;;;;;5048925;28;20218;-61
2023/02/08 11:56:18;;;;;;;0.10;0.10;;;;;;;;;;5042372;28;20266;-62
2023/02/08 11:58:59;;;;;;;0.10;0.10;;;;;;;;;;5049460;28;20206;-62
2023/02/08 12:01:27;;;;;;;0.10;0.10;;;;;;;;;;5042846;28;20462;-62
2023/02/08 12:03:56;;;;;;;0.10;0.10;;;;;;;;;;5048663;28;20234;-62
2023/02/08 12:06:33;;;;;;;0.10;0.10;;;;;;;;;;5042697;28;20309;-62
2023/02/08 12:09:03;;;;;;;0.10;0.10;;;;;;;;;;5047709;28;20207;-61
2023/02/08 12:11:35;;;;;;;0.10;0.10;;;;;;;;;;5043582;28;20242;-61
2023/02/08 12:14:21;;;;;;;0.10;0.10;;;;;;;;;;5047235;28;20393;-61
2023/02/08 12:16:53;;;;;;;0.10;0.10;;;;;;;;;;5045774;28;20314;-62
2023/02/08 12:19:37;;;;;;;0.20;0.20;;;;;;;;;;5045018;28;20207;-61
2023/02/08 12:22:06;;;;;;;0.10;0.10;;;;;;;;;;5047672;28;20305;-61
2023/02/08 12:24:36;;;;;;;0.10;0.10;;;;;;;;;;5043016;28;20277;-61
2023/02/08 12:27:09;;;;;;;0.10;0.10;;;;;;;;;;5047800;28;20240;-63
2023/02/08 12:29:42;;;;;;;0.30;0.30;;;;;;;;;;5046665;28;20395;-62
2023/02/08 12:32:16;;;;;;;0.10;0.10;;;;;;;;;;5051744;28;20238;-62
2023/02/08 12:34:49;;;;;;;0.10;0.10;;;;;;;;;;5046879;28;20505;-63
2023/02/08 12:43:03;;;;;;;0.10;0.10;;;;;;;;;;5059364;28;20221;-63
2023/02/08 12:45:36;;;;;;;0.05;0.05;;;;;;;;;;5039199;28;20287;-62
2023/02/08 12:48:10;;;;;;;0.10;0.10;;;;;;;;;;5057828;28;20238;-62
2023/02/08 12:50:41;;;;;;;0.10;0.10;;;;;;;;;;5039782;28;20316;-61
2023/02/08 12:53:13;;;;;;;0.10;0.10;;;;;;;;;;5057469;28;20207;-62
2023/02/08 12:55:41;;;;;;;0.10;0.10;;;;;;;;;;5040073;28;20257;-62
2023/02/08 12:58:15;;;;;;;0.10;0.10;;;;;;;;;;5057242;28;20210;-63
2023/02/08 13:00:42;;;;;;;1.13;1.13;;;;;;;;;;5040461;28;20251;-61
2023/02/08 13:03:14;;;;;;;0.90;0.73;;;;;;;;;;5056941;28;20234;-61
2023/02/08 13:05:44;;;;;;;0.10;0.10;;;;;;;;;;5039929;28;20311;-62
2023/02/08 13:08:15;;;;;;;0.47;0.47;;;;;;;;;;5056635;28;20551;-63
2023/02/08 13:10:43;;;;;;;0.10;0.10;;;;;;;;;;5040229;28;20561;-61
2023/02/08 13:13:14;;;;;;;0.10;0.10;;;;;;;;;;5056706;28;20232;-62
2023/02/08 13:15:43;;;;;;;0.10;0.10;;;;;;;;;;5040151;28;20241;-62
2023/02/08 13:18:15;;;;;;;0.10;0.10;;;;;;;;;;5056446;28;20530;-62
2023/02/08 13:20:45;;;;;;;0.67;0.67;;;;;;;;;;5040133;28;20306;-63
2023/02/08 13:23:15;;;;;;;0.10;0.10;;;;;;;;;;5056302;28;20295;-62
2023/02/08 13:25:42;;;;;;;0.10;0.10;;;;;;;;;;5040007;28;20310;-62
2023/02/08 13:28:17;;;;;;;0.30;0.30;;;;;;;;;;5056987;28;20276;-64
2023/02/08 13:30:46;;;;;;;0.40;0.40;;;;;;;;;;5040216;28;20573;-64
2023/02/08 13:33:15;;;;;;;2.33;1.17;;;;;;;;;;5055966;28;20235;-63
2023/02/08 13:35:43;;;;;;;0.10;0.10;;;;;;;;;;5039763;28;20561;-64
2023/02/08 13:38:25;;;;;;;0.10;0.10;;;;;;;;;;5056049;28;20276;-64
2023/02/08 13:41:01;;;;;;;0.10;0.10;;;;;;;;;;5040890;28;20240;-63
2023/02/08 13:43:32;;;;;;;0.30;0.30;;;;;;;;;;5053628;28;20297;-64
2023/02/08 13:45:59;;;;;;;0.60;0.60;;;;;;;;;;5041688;28;20241;-63
2023/02/08 13:48:26;;;;;;;0.10;0.10;;;;;;;;;;5053679;28;20275;-64
2023/02/08 13:50:55;;;;;;;0.23;0.23;;;;;;;;;;5040838;28;20237;-63
2023/02/08 13:53:36;;;;;;;0.10;0.10;;;;;;;;;;5054460;28;20205;-63
2023/02/08 13:56:04;;;;;;;0.73;0.73;;;;;;;;;;5042024;28;20272;-63
2023/02/08 13:58:38;;;;;;;0.30;0.30;;;;;;;;;;5052818;28;20220;-64
2023/02/08 14:01:29;;;;;;;0.20;0.20;;;;;;;;;;5042161;28;20262;-64
2023/02/08 14:04:14;;;;;;;0.10;0.10;;;;;;;;;;5029889;28;20233;-64
2023/02/08 14:06:46;;;;;;;0.10;0.10;;;;;;;;;;5046698;28;20269;-63
2023/02/08 14:09:17;;;;;;;0.10;0.10;;;;;;;;;;5047927;28;20264;-63
2023/02/08 14:11:45;;;;;;;0.20;0.20;;;;;;;;;;5046876;28;20272;-63
2023/02/08 14:14:30;;;;;;;0.20;0.20;;;;;;;;;;5051290;28;20223;-62
2023/02/08 14:17:14;;;;;;;0.10;0.10;;;;;;;;;;5048526;28;20315;-63
2023/02/08 14:19:42;;;;;;;0.20;0.20;;;;;;;;;;5037817;28;20204;-62
2023/02/08 14:22:15;;;;;;;0.10;0.10;;;;;;;;;;5049758;28;20246;-63
2023/02/08 14:24:46;;;;;;;1.20;1.10;;;;;;;;;;5044657;28;20221;-62
2023/02/08 14:27:18;;;;;;;0.20;0.20;;;;;;;;;;5049660;28;20240;-63
2023/02/08 14:29:45;;;;;;;0.10;0.10;;;;;;;;;;5044425;28;20259;-62
2023/02/08 14:32:22;;;;;;;0.20;0.20;;;;;;;;;;5049484;28;20262;-63
2023/02/08 14:34:48;;;;;;;0.30;0.30;;;;;;;;;;5044150;28;20262;-62
2023/02/08 14:37:28;;;;;;;1.07;1.07;;;;;;;;;;5049487;28;20467;-63
2023/02/08 14:40:09;;;;;;;2.00;1.90;;;;;;;;;;5044851;28;20421;-62
2023/02/08 14:42:55;;;;;;;0.20;0.20;;;;;;;;;;5032091;28;20207;-63
2023/02/08 14:45:27;;;;;;;0.30;0.30;;;;;;;;;;5035721;28;20213;-61
2023/02/08 14:47:58;;;;;;;0.13;0.13;;;;;;;;;;5056900;28;20227;-62
2023/02/08 14:50:25;;;;;;;5.27;1.10;;;;;;;;;;5035736;28;20223;-63
2023/02/08 14:52:56;;;;;;;1.30;1.30;;;;;;;;;;5057114;28;20370;-62
2023/02/08 14:55:25;;;;;;;0.60;0.60;;;;;;;;;;5035620;28;20272;-62
2023/02/08 14:57:53;;;;;;;0.77;0.77;;;;;;;;;;5057050;28;20516;-62